createdAt,value
2023-01-25T00:00:17.507Z,8.40
2023-01-25T00:02:43.377Z,8.39
2023-01-25T00:05:09.593Z,8.40
2023-01-25T00:07:35.618Z,8.44
2023-01-25T00:10:01.590Z,8.48
2023-01-25T00:12:27.569Z,8.47
2023-01-25T00:14:53.457Z,8.47
2023-01-25T00:17:19.368Z,8.47
2023-01-25T00:19:45.242Z,8.49
2023-01-25T00:22:11.187Z,8.51
2023-01-25T00:24:37.153Z,8.53
2023-01-25T00:27:03.237Z,8.53
2023-01-25T00:29:30.966Z,8.54
2023-01-25T00:31:56.969Z,8.54
2023-01-25T00:34:22.936Z,8.55
2023-01-25T00:36:57.064Z,8.56
2023-01-25T00:39:25.601Z,8.57
2023-01-25T00:41:51.491Z,8.55
2023-01-25T00:44:17.902Z,8.52
2023-01-25T00:46:44.808Z,8.47
2023-01-25T00:49:21.213Z,8.44
2023-01-25T00:51:48.113Z,8.40
2023-01-25T00:54:14.237Z,8.40
2023-01-25T00:56:40.249Z,8.38
2023-01-25T00:59:06.754Z,8.37
2023-01-25T01:01:34.355Z,8.36
2023-01-25T01:04:00.277Z,8.36
2023-01-25T01:06:26.240Z,8.35
2023-01-25T01:08:52.290Z,8.33
2023-01-25T01:11:18.495Z,8.31
2023-01-25T01:13:44.418Z,8.32
2023-01-25T01:16:12.322Z,8.33
2023-01-25T01:18:44.363Z,8.32
2023-01-25T01:21:12.251Z,8.30
2023-01-25T01:23:38.961Z,8.30
2023-01-25T01:26:07.651Z,8.29
2023-01-25T01:28:35.490Z,8.25
2023-01-25T01:31:03.425Z,8.18
2023-01-25T01:33:31.516Z,8.17
2023-01-25T01:35:57.817Z,8.16
2023-01-25T01:38:24.305Z,8.16
2023-01-25T01:40:50.863Z,8.15
2023-01-25T01:43:21.529Z,8.12
2023-01-25T01:45:47.608Z,8.10
2023-01-25T01:48:19.848Z,8.06
2023-01-25T01:50:50.489Z,8.02
2023-01-25T01:53:17.420Z,8.00
2023-01-25T01:55:43.568Z,7.99
2023-01-25T01:58:09.777Z,7.97
2023-01-25T02:00:40.261Z,7.92
2023-01-25T02:03:08.863Z,7.91
2023-01-25T02:05:46.934Z,7.90
2023-01-25T02:08:14.275Z,7.89
2023-01-25T02:10:41.835Z,7.89
2023-01-25T02:13:09.226Z,7.86
2023-01-25T02:15:40.133Z,7.85
2023-01-25T02:18:06.132Z,7.88
2023-01-25T02:20:37.214Z,7.89
2023-01-25T02:23:22.081Z,7.86
2023-01-25T02:25:48.339Z,7.85
2023-01-25T02:28:31.028Z,7.83
2023-01-25T02:30:57.059Z,7.85
2023-01-25T02:33:24.841Z,7.89
2023-01-25T02:36:10.673Z,7.93
2023-01-25T02:38:44.700Z,7.98
2023-01-25T02:41:23.859Z,8.02
2023-01-25T02:43:49.903Z,8.03
2023-01-25T02:46:28.022Z,8.05
2023-01-25T02:48:55.023Z,8.09
2023-01-25T02:51:23.129Z,8.13
2023-01-25T02:53:49.676Z,8.15
2023-01-25T02:56:16.121Z,8.14
2023-01-25T02:58:42.308Z,8.13
2023-01-25T03:01:10.263Z,8.14
2023-01-25T03:03:36.910Z,8.15
2023-01-25T03:06:04.165Z,8.17
2023-01-25T03:08:30.552Z,8.20
2023-01-25T03:10:58.971Z,8.23
2023-01-25T03:13:26.540Z,8.23
2023-01-25T03:15:58.869Z,8.20
2023-01-25T03:18:24.968Z,8.16
2023-01-25T03:20:51.091Z,8.10
2023-01-25T03:23:17.191Z,8.02
2023-01-25T03:25:43.080Z,7.99
2023-01-25T03:28:13.631Z,7.99
2023-01-25T03:30:39.706Z,7.94
2023-01-25T03:33:07.525Z,7.87
2023-01-25T03:35:33.582Z,7.81
2023-01-25T03:37:59.574Z,7.75
2023-01-25T03:40:25.521Z,7.71
2023-01-25T03:42:52.944Z,7.70
2023-01-25T03:45:19.444Z,7.72
2023-01-25T03:47:45.563Z,7.75
2023-01-25T03:50:11.533Z,7.76
2023-01-25T03:53:29.205Z,7.78
2023-01-25T03:56:01.283Z,7.76
2023-01-25T03:58:30.696Z,7.75
2023-01-25T04:01:00.048Z,7.74
2023-01-25T04:03:28.472Z,7.72
2023-01-25T04:05:56.843Z,7.69
2023-01-25T04:08:24.331Z,7.67
2023-01-25T04:10:52.886Z,7.67
2023-01-25T04:13:21.538Z,7.65
2023-01-25T04:15:49.390Z,7.63
2023-01-25T04:18:25.439Z,7.60
2023-01-25T04:20:53.176Z,7.51
2023-01-25T04:23:19.923Z,7.46
2023-01-25T04:26:01.002Z,7.45
2023-01-25T04:28:27.650Z,7.45
2023-01-25T04:30:56.564Z,7.50
2023-01-25T04:33:25.497Z,7.53
2023-01-25T04:35:51.841Z,7.55
2023-01-25T04:38:18.252Z,7.51
2023-01-25T04:40:45.235Z,7.45
2023-01-25T04:43:16.492Z,7.45
2023-01-25T04:45:43.425Z,7.46
2023-01-25T04:48:15.237Z,7.47
2023-01-25T04:50:47.552Z,7.52
2023-01-25T04:53:13.749Z,7.56
2023-01-25T04:55:39.907Z,7.57
2023-01-25T04:58:06.973Z,7.55
2023-01-25T05:00:33.234Z,7.55
2023-01-25T05:02:59.814Z,7.56
2023-01-25T05:05:26.041Z,7.58
2023-01-25T05:07:52.584Z,7.60
2023-01-25T05:10:18.757Z,7.64
2023-01-25T05:13:07.275Z,7.67
2023-01-25T05:15:33.687Z,7.70
2023-01-25T05:18:00.184Z,7.72
2023-01-25T05:20:26.158Z,7.75
2023-01-25T05:22:53.027Z,7.80
2023-01-25T05:25:38.133Z,7.84
2023-01-25T05:28:06.210Z,7.84
2023-01-25T05:31:05.150Z,7.84
2023-01-25T05:33:33.087Z,7.87
2023-01-25T05:35:59.042Z,7.88
2023-01-25T05:38:26.390Z,7.88
2023-01-25T05:40:52.346Z,7.88
2023-01-25T05:43:18.497Z,7.86
2023-01-25T05:45:52.180Z,7.85
2023-01-25T05:48:18.235Z,7.83
2023-01-25T05:50:44.105Z,7.81
2023-01-25T05:53:15.089Z,7.80
2023-01-25T05:55:41.513Z,7.82
2023-01-25T05:58:09.732Z,7.84
2023-01-25T06:00:37.694Z,7.85
2023-01-25T06:03:03.908Z,7.86
2023-01-25T06:05:32.427Z,7.89
2023-01-25T06:07:58.996Z,7.93
2023-01-25T06:10:30.554Z,7.91
2023-01-25T06:12:58.516Z,7.83
2023-01-25T06:15:25.435Z,7.77
2023-01-25T06:17:56.285Z,7.78
2023-01-25T06:20:33.303Z,7.81
2023-01-25T06:23:05.280Z,7.81
2023-01-25T06:25:31.280Z,7.83
2023-01-25T06:27:57.219Z,7.84
2023-01-25T06:30:23.201Z,7.85
2023-01-25T06:32:49.771Z,7.87
2023-01-25T06:35:15.767Z,7.88
2023-01-25T06:37:41.909Z,7.87
2023-01-25T06:40:08.631Z,7.90
2023-01-25T06:42:34.545Z,7.92
2023-01-25T06:45:00.487Z,7.93
2023-01-25T06:47:26.390Z,7.93
2023-01-25T06:49:52.263Z,7.93
2023-01-25T06:52:18.141Z,7.92
2023-01-25T06:54:44.073Z,7.89
2023-01-25T06:57:11.427Z,7.87
2023-01-25T06:59:37.300Z,7.88
2023-01-25T07:02:03.335Z,7.86
2023-01-25T07:04:29.979Z,7.82
2023-01-25T07:06:55.961Z,7.83
2023-01-25T07:09:23.756Z,7.84
2023-01-25T07:11:50.802Z,7.87
2023-01-25T07:14:16.828Z,7.89
2023-01-25T07:16:42.715Z,7.91
2023-01-25T07:19:12.629Z,7.91
2023-01-25T07:21:38.668Z,7.95
2023-01-25T07:24:05.115Z,7.99
2023-01-25T07:26:32.279Z,8.01
2023-01-25T07:28:59.056Z,8.01
2023-01-25T07:31:26.025Z,8.00
2023-01-25T07:33:55.210Z,8.01
2023-01-25T07:36:21.837Z,8.03
2023-01-25T07:38:48.625Z,8.07
2023-01-25T07:41:15.707Z,8.13
2023-01-25T07:43:41.883Z,8.21
2023-01-25T07:46:11.685Z,8.28
2023-01-25T07:48:38.616Z,8.31
2023-01-25T07:51:21.822Z,8.36
2023-01-25T07:54:01.454Z,8.35
2023-01-25T07:56:29.715Z,8.31
2023-01-25T07:58:57.917Z,8.25
2023-01-25T08:01:26.806Z,8.20
2023-01-25T08:03:55.471Z,8.13
2023-01-25T08:06:30.515Z,8.13
2023-01-25T08:08:58.358Z,8.18
2023-01-25T08:11:27.233Z,8.17
2023-01-25T08:13:53.447Z,8.17
2023-01-25T08:16:21.629Z,8.16
2023-01-25T08:18:51.730Z,8.15
2023-01-25T08:21:18.676Z,8.13
2023-01-25T08:23:45.507Z,8.10
2023-01-25T08:26:14.038Z,8.06
2023-01-25T08:28:39.979Z,8.01
2023-01-25T08:31:05.927Z,7.95
2023-01-25T08:33:32.515Z,7.93
2023-01-25T08:35:58.468Z,7.98
2023-01-25T08:38:24.387Z,8.05
2023-01-25T08:40:50.414Z,8.14
2023-01-25T08:43:16.436Z,8.24
2023-01-25T08:45:42.438Z,8.33
2023-01-25T08:48:08.852Z,8.42
2023-01-25T08:50:34.723Z,8.47
2023-01-25T08:53:00.662Z,8.50
2023-01-25T08:55:26.542Z,8.52
2023-01-25T08:57:52.471Z,8.54
2023-01-25T09:00:19.288Z,8.54
2023-01-25T09:02:45.187Z,8.56
2023-01-25T09:05:11.231Z,8.59
2023-01-25T09:07:38.214Z,8.61
2023-01-25T09:10:08.503Z,8.66
2023-01-25T09:12:35.506Z,8.74
2023-01-25T09:15:03.252Z,8.80
2023-01-25T09:17:29.544Z,8.84
2023-01-25T09:19:55.496Z,8.85
2023-01-25T09:22:21.426Z,8.86
2023-01-25T09:24:51.537Z,8.87
2023-01-25T09:27:17.505Z,8.85
2023-01-25T09:29:46.449Z,8.83
2023-01-25T09:32:26.418Z,8.80
2023-01-25T09:34:53.072Z,8.77
2023-01-25T09:37:19.048Z,8.76
2023-01-25T09:39:44.938Z,8.76
2023-01-25T09:42:35.932Z,8.74
2023-01-25T09:45:29.623Z,8.70
2023-01-25T09:48:02.375Z,8.65
2023-01-25T09:50:42.383Z,8.65
2023-01-25T09:53:33.217Z,8.69
2023-01-25T09:56:26.239Z,8.76
2023-01-25T09:58:55.435Z,8.84
2023-01-25T10:01:40.295Z,8.88
2023-01-25T10:04:16.377Z,8.93
2023-01-25T10:06:59.860Z,9.00
2023-01-25T10:09:44.548Z,9.10
2023-01-25T10:12:23.109Z,9.21
2023-01-25T10:14:49.770Z,9.33
2023-01-25T10:17:40.901Z,9.47
2023-01-25T10:20:19.324Z,9.68
2023-01-25T10:22:50.703Z,9.97
2023-01-25T10:25:28.452Z,10.29
2023-01-25T10:28:23.981Z,10.63
2023-01-25T10:30:57.651Z,10.91
2023-01-25T10:33:23.673Z,11.03
2023-01-25T10:35:50.196Z,11.07
2023-01-25T10:38:42.016Z,11.13
2023-01-25T10:41:18.013Z,11.18
2023-01-25T10:43:43.963Z,11.19
2023-01-25T10:46:37.613Z,11.30
2023-01-25T10:49:23.215Z,11.30
2023-01-25T10:51:49.238Z,11.19
2023-01-25T10:54:15.998Z,11.05
2023-01-25T10:56:44.481Z,10.97
2023-01-25T10:59:28.788Z,10.89
2023-01-25T11:01:54.874Z,10.80
2023-01-25T11:04:30.686Z,10.72
2023-01-25T11:06:58.426Z,10.68
2023-01-25T11:09:33.603Z,10.66
2023-01-25T11:12:19.772Z,10.64
2023-01-25T11:14:51.209Z,10.76
2023-01-25T11:17:30.802Z,11.02
2023-01-25T11:20:16.527Z,11.29
2023-01-25T11:22:55.234Z,11.63
2023-01-25T11:25:29.683Z,11.87
2023-01-25T11:28:24.865Z,12.03
2023-01-25T11:30:52.538Z,12.04
2023-01-25T11:33:21.213Z,12.05
2023-01-25T11:36:30.539Z,12.13
2023-01-25T11:39:06.741Z,12.23
2023-01-25T11:41:55.021Z,12.31
2023-01-25T11:44:42.919Z,12.27
2023-01-25T11:47:08.754Z,12.13
2023-01-25T11:49:40.197Z,12.00
2023-01-25T11:52:24.527Z,11.86
2023-01-25T11:55:18.599Z,11.69
2023-01-25T11:58:13.835Z,11.53
2023-01-25T12:01:04.229Z,11.44
2023-01-25T12:03:58.257Z,11.42
2023-01-25T12:06:36.217Z,11.72
2023-01-25T12:09:31.793Z,12.14
2023-01-25T12:12:14.940Z,12.54
2023-01-25T12:15:14.818Z,12.76
2023-01-25T12:17:52.937Z,12.95
2023-01-25T12:20:18.951Z,13.23
2023-01-25T12:23:12.013Z,13.46
2023-01-25T12:25:50.142Z,13.63
2023-01-25T12:28:51.293Z,13.78
2023-01-25T12:31:31.693Z,13.97
2023-01-25T12:34:12.182Z,14.15
2023-01-25T12:36:51.088Z,14.30
2023-01-25T12:39:32.353Z,14.39
2023-01-25T12:42:11.265Z,14.41
2023-01-25T12:44:46.231Z,14.46
2023-01-25T12:47:50.918Z,14.56
2023-01-25T12:50:27.054Z,14.68
2023-01-25T12:53:10.199Z,14.75
2023-01-25T12:55:36.807Z,14.80
2023-01-25T12:58:37.138Z,14.84
2023-01-25T13:01:07.071Z,14.99
2023-01-25T13:03:58.104Z,15.06
2023-01-25T13:06:40.832Z,14.86
2023-01-25T13:09:17.696Z,14.46
2023-01-25T13:11:46.891Z,14.01
2023-01-25T13:14:15.837Z,13.64
2023-01-25T13:16:50.144Z,13.30
2023-01-25T13:19:42.318Z,13.06
2023-01-25T13:22:10.846Z,12.85
2023-01-25T13:25:02.354Z,12.75
2023-01-25T13:27:30.476Z,12.61
2023-01-25T13:30:22.259Z,12.50
2023-01-25T13:32:51.044Z,12.42
2023-01-25T13:35:34.410Z,12.34
2023-01-25T13:38:08.321Z,12.33
2023-01-25T13:40:39.186Z,12.34
2023-01-25T13:43:25.376Z,12.45
2023-01-25T13:45:52.766Z,12.59
2023-01-25T13:48:23.174Z,12.85
2023-01-25T13:51:00.126Z,13.06
2023-01-25T13:53:32.682Z,13.17
2023-01-25T13:55:58.873Z,13.11
2023-01-25T13:58:30.704Z,12.99
2023-01-25T14:01:01.495Z,12.86
2023-01-25T14:03:35.450Z,12.75
2023-01-25T14:06:03.740Z,12.73
2023-01-25T14:08:30.720Z,12.65
2023-01-25T14:10:57.460Z,12.55
2023-01-25T14:13:24.249Z,12.47
2023-01-25T14:16:00.980Z,12.39
2023-01-25T14:18:29.528Z,12.27
2023-01-25T14:21:11.304Z,12.11
2023-01-25T14:23:39.348Z,11.95
2023-01-25T14:26:18.767Z,11.81
2023-01-25T14:28:59.010Z,11.69
2023-01-25T14:31:32.090Z,11.60
2023-01-25T14:33:58.329Z,11.48
2023-01-25T14:36:30.767Z,11.40
2023-01-25T14:38:57.061Z,11.34
2023-01-25T14:41:33.214Z,11.29
2023-01-25T14:44:05.735Z,11.36
2023-01-25T14:46:34.229Z,11.79
2023-01-25T14:49:09.286Z,12.00
2023-01-25T14:51:44.285Z,12.11
2023-01-25T14:54:19.312Z,12.11
2023-01-25T14:56:45.187Z,12.04
2023-01-25T14:59:20.294Z,11.95
2023-01-25T15:01:50.158Z,11.84
2023-01-25T15:04:16.206Z,11.71
2023-01-25T15:06:50.327Z,11.59
2023-01-25T15:09:38.662Z,11.48
2023-01-25T15:12:29.715Z,11.38
2023-01-25T15:14:57.463Z,11.30
2023-01-25T15:17:47.961Z,11.24
2023-01-25T15:20:33.527Z,11.09
2023-01-25T15:23:20.136Z,10.94
2023-01-25T15:25:56.473Z,10.83
2023-01-25T15:28:25.150Z,10.72
2023-01-25T15:30:51.308Z,10.62
2023-01-25T15:33:26.517Z,10.53
2023-01-25T15:35:53.139Z,10.46
2023-01-25T15:38:21.161Z,10.42
2023-01-25T15:40:48.153Z,10.33
2023-01-25T15:43:15.840Z,10.20
2023-01-25T15:45:43.828Z,10.10
2023-01-25T15:48:16.722Z,10.01
2023-01-25T15:50:42.865Z,9.94
2023-01-25T15:53:16.947Z,9.86
2023-01-25T15:55:45.256Z,9.78
2023-01-25T15:58:25.529Z,9.71
2023-01-25T16:00:51.569Z,9.65
2023-01-25T16:03:19.829Z,9.60
2023-01-25T16:05:53.036Z,9.53
2023-01-25T16:08:20.363Z,9.48
2023-01-25T16:10:47.115Z,9.43
2023-01-25T16:13:13.574Z,9.38
2023-01-25T16:15:41.567Z,9.36
2023-01-25T16:18:13.266Z,9.32
2023-01-25T16:20:39.808Z,9.29
2023-01-25T16:23:05.770Z,9.26
2023-01-25T16:25:31.675Z,9.23
2023-01-25T16:27:57.563Z,9.21
2023-01-25T16:30:26.712Z,9.20
2023-01-25T16:32:53.180Z,9.19
2023-01-25T16:35:20.128Z,9.18
2023-01-25T16:37:46.763Z,9.16
2023-01-25T16:40:31.048Z,9.15
2023-01-25T16:42:57.113Z,9.14
2023-01-25T16:45:26.101Z,9.12
2023-01-25T16:47:52.789Z,9.11
2023-01-25T16:50:22.605Z,9.10
2023-01-25T16:52:50.678Z,9.08
2023-01-25T16:55:18.576Z,9.05
2023-01-25T16:57:49.465Z,9.02
2023-01-25T17:00:15.871Z,9.02
2023-01-25T17:02:53.453Z,9.04
2023-01-25T17:05:25.025Z,9.07
2023-01-25T17:07:51.039Z,9.09
2023-01-25T17:10:16.910Z,9.10
2023-01-25T17:12:44.728Z,9.11
2023-01-25T17:15:10.947Z,9.11
2023-01-25T17:17:36.825Z,9.10
2023-01-25T17:20:04.188Z,9.09
2023-01-25T17:22:36.638Z,9.05
2023-01-25T17:25:06.215Z,9.00
2023-01-25T17:27:32.277Z,8.97
2023-01-25T17:29:58.292Z,8.94
2023-01-25T17:32:24.263Z,8.93
2023-01-25T17:34:50.294Z,8.90
2023-01-25T17:37:16.180Z,8.88
2023-01-25T17:39:42.254Z,8.86
2023-01-25T17:42:10.421Z,8.84
2023-01-25T17:44:36.332Z,8.81
2023-01-25T17:47:02.289Z,8.79
2023-01-25T17:49:29.953Z,8.75
2023-01-25T17:51:55.945Z,8.73
2023-01-25T17:54:22.019Z,8.71
2023-01-25T17:56:49.023Z,8.69
2023-01-25T17:59:15.006Z,8.66
2023-01-25T18:01:42.256Z,8.64
2023-01-25T18:04:08.891Z,8.64
2023-01-25T18:06:35.236Z,8.62
2023-01-25T18:09:02.443Z,8.61
2023-01-25T18:11:31.560Z,8.60
2023-01-25T18:14:07.557Z,8.60
2023-01-25T18:16:35.413Z,8.61
2023-01-25T18:19:02.875Z,8.63
2023-01-25T18:21:31.065Z,8.64
2023-01-25T18:24:05.088Z,8.64
2023-01-25T18:26:34.913Z,8.66
2023-01-25T18:29:19.203Z,8.66
2023-01-25T18:31:45.263Z,8.66
2023-01-25T18:34:11.334Z,8.67
2023-01-25T18:36:37.318Z,8.68
2023-01-25T18:39:06.188Z,8.69
2023-01-25T18:41:32.163Z,8.70
2023-01-25T18:43:58.149Z,8.70
2023-01-25T18:46:24.184Z,8.70
2023-01-25T18:48:50.418Z,8.70
2023-01-25T18:51:21.995Z,8.70
2023-01-25T18:53:48.566Z,8.68
2023-01-25T18:56:17.181Z,8.67
2023-01-25T18:58:44.435Z,8.65
2023-01-25T19:01:14.216Z,8.64
2023-01-25T19:03:41.574Z,8.63
2023-01-25T19:06:08.335Z,8.62
2023-01-25T19:08:35.809Z,8.61
2023-01-25T19:11:05.299Z,8.59
2023-01-25T19:13:36.304Z,8.57
2023-01-25T19:16:04.879Z,8.54
2023-01-25T19:18:33.330Z,8.53
2023-01-25T19:20:59.737Z,8.53
2023-01-25T19:23:26.420Z,8.53
2023-01-25T19:25:54.420Z,8.52
2023-01-25T19:28:21.334Z,8.49
2023-01-25T19:30:47.276Z,8.47
2023-01-25T19:33:13.277Z,8.45
2023-01-25T19:35:39.330Z,8.45
2023-01-25T19:38:05.436Z,8.46
2023-01-25T19:40:31.476Z,8.47
2023-01-25T19:42:57.354Z,8.50
2023-01-25T19:45:23.283Z,8.50
2023-01-25T19:47:49.244Z,8.51
2023-01-25T19:50:15.587Z,8.52
2023-01-25T19:52:41.460Z,8.51
2023-01-25T19:55:07.418Z,8.51
2023-01-25T19:57:33.709Z,8.52
2023-01-25T19:59:59.650Z,8.52
2023-01-25T20:02:25.656Z,8.53
2023-01-25T20:04:51.616Z,8.53
2023-01-25T20:07:18.082Z,8.56
2023-01-25T20:09:44.091Z,8.55
2023-01-25T20:12:10.396Z,8.51
2023-01-25T20:14:37.331Z,8.42
2023-01-25T20:17:05.475Z,8.33
2023-01-25T20:19:34.406Z,8.22
2023-01-25T20:22:00.968Z,8.12
2023-01-25T20:24:26.927Z,8.03
2023-01-25T20:26:54.125Z,7.98
2023-01-25T20:29:20.884Z,7.90
2023-01-25T20:31:47.613Z,7.86
2023-01-25T20:34:16.758Z,7.83
2023-01-25T20:36:43.690Z,7.78
2023-01-25T20:39:15.139Z,7.72
2023-01-25T20:41:41.136Z,7.68
2023-01-25T20:44:08.044Z,7.65
2023-01-25T20:46:37.325Z,7.65
2023-01-25T20:49:09.822Z,7.64
2023-01-25T20:51:36.424Z,7.63
2023-01-25T20:54:02.605Z,7.65
2023-01-25T20:56:28.787Z,7.66
2023-01-25T20:58:54.736Z,7.67
2023-01-25T21:01:23.766Z,7.68
2023-01-25T21:03:53.726Z,7.66
2023-01-25T21:06:20.156Z,7.67
2023-01-25T21:08:46.159Z,7.67
2023-01-25T21:11:12.843Z,7.68
2023-01-25T21:13:39.007Z,7.68
2023-01-25T21:16:17.518Z,7.66
2023-01-25T21:18:49.378Z,7.65
2023-01-25T21:21:18.227Z,7.63
2023-01-25T21:23:46.085Z,7.61
2023-01-25T21:26:16.329Z,7.59
2023-01-25T21:28:42.494Z,7.56
2023-01-25T21:31:13.869Z,7.52
2023-01-25T21:33:40.030Z,7.47
2023-01-25T21:36:10.936Z,7.43
2023-01-25T21:38:39.087Z,7.39
2023-01-25T21:41:07.111Z,7.36
2023-01-25T21:43:53.880Z,7.34
2023-01-25T21:46:24.845Z,7.32
2023-01-25T21:49:14.646Z,7.28
2023-01-25T21:51:50.301Z,7.24
2023-01-25T21:54:19.924Z,7.21
2023-01-25T21:56:47.531Z,7.18
2023-01-25T21:59:13.433Z,7.13
2023-01-25T22:01:39.774Z,7.08
2023-01-25T22:04:06.015Z,7.05
2023-01-25T22:06:33.233Z,7.03
2023-01-25T22:08:59.274Z,7.00
2023-01-25T22:11:25.337Z,6.98
2023-01-25T22:13:51.352Z,6.97
2023-01-25T22:16:18.088Z,6.96
2023-01-25T22:18:44.156Z,6.95
2023-01-25T22:21:21.382Z,6.95
2023-01-25T22:23:48.139Z,6.95
2023-01-25T22:26:22.160Z,6.93
2023-01-25T22:28:51.930Z,6.94
2023-01-25T22:31:30.078Z,6.92
2023-01-25T22:33:57.981Z,6.92
2023-01-25T22:36:26.628Z,6.92
2023-01-25T22:38:52.638Z,6.92
2023-01-25T22:41:20.894Z,6.91
2023-01-25T22:43:47.246Z,6.91
2023-01-25T22:46:18.503Z,6.92
2023-01-25T22:48:45.378Z,6.90
2023-01-25T22:51:17.154Z,6.87
2023-01-25T22:53:43.891Z,6.85
2023-01-25T22:56:12.400Z,6.85
2023-01-25T22:58:40.647Z,6.85
2023-01-25T23:01:11.433Z,6.85
2023-01-25T23:03:37.781Z,6.85
2023-01-25T23:06:15.992Z,6.85
2023-01-25T23:08:43.166Z,6.82
2023-01-25T23:11:17.575Z,6.80
2023-01-25T23:14:03.409Z,6.78
2023-01-25T23:16:30.257Z,6.75
2023-01-25T23:18:57.069Z,6.72
2023-01-25T23:21:26.693Z,6.71
2023-01-25T23:23:54.463Z,6.68
2023-01-25T23:26:21.086Z,6.63
2023-01-25T23:28:56.517Z,6.60
2023-01-25T23:31:24.594Z,6.57
2023-01-25T23:33:55.518Z,6.54
2023-01-25T23:36:24.667Z,6.51
2023-01-25T23:38:51.577Z,6.48
2023-01-25T23:41:19.400Z,6.45
2023-01-25T23:43:45.520Z,6.42
2023-01-25T23:46:15.321Z,6.40
2023-01-25T23:48:45.600Z,6.38
2023-01-25T23:51:13.755Z,6.36
2023-01-25T23:53:40.361Z,6.34
2023-01-25T23:56:11.379Z,6.33
2023-01-25T23:58:37.862Z,6.32
